Karachi Weather



Karachi's Current Weather

Temprature 34o scattered clouds

scattered clouds

Rain: 0 %

Min Temprature34o
Max Temprature34o
Humidity59
Wind Speed8.7 m/h
Sun Rise05:47:07
Sun Set19:25:06
Current Time: 05-Jul-2020 18:11:30
Lat/Lon: 24.91, 67.08




Karachi's Geo Location



Karachi's Weather Forecast

Time Overall Temp Min Temp Max Temp Humidity Wind Speed Rain
05-Jul-2020 (Sun)
20:00:00 broken clouds 32.550 31.020 32.550 68 7.43 m/h 0 %
23:00:00 broken clouds 31.380 30.660 31.380 75 7.14 m/h 0 %
06-Jul-2020 (Mon)
02:00:00 overcast clouds 30.570 30.340 30.570 77 7.16 m/h 0 %
05:00:00 overcast clouds 29.780 29.750 29.780 81 6.07 m/h 0 %
08:00:00 overcast clouds 30.960 30.960 30.960 75 5.56 m/h 0 %
11:00:00 overcast clouds 34.200 34.200 34.200 59 5.39 m/h 0 %
14:00:00 overcast clouds 34.660 34.660 34.660 58 6.94 m/h 0 %
17:00:00 overcast clouds 32.700 32.700 32.700 67 8.31 m/h 0 %
20:00:00 light rain 31.210 31.210 31.210 75 4.21 m/h 27 %
23:00:00 light rain 30.830 30.830 30.830 72 3.54 m/h 22 %
07-Jul-2020 (Tue)
02:00:00 overcast clouds 30.290 30.290 30.290 78 5.63 m/h 0 %
05:00:00 light rain 30.090 30.090 30.090 78 4.07 m/h 36 %
08:00:00 light rain 30.970 30.970 30.970 72 2.93 m/h 98 %
11:00:00 light rain 34.380 34.380 34.380 51 0.21 m/h 41 %
14:00:00 light rain 33.300 33.300 33.300 52 3.56 m/h 51 %
17:00:00 light rain 31.660 31.660 31.660 64 5.33 m/h 13 %
20:00:00 overcast clouds 31.010 31.010 31.010 74 6.08 m/h 0 %
23:00:00 overcast clouds 31.720 31.720 31.720 66 6.8 m/h 0 %
08-Jul-2020 (Wed)
02:00:00 overcast clouds 31.100 31.100 31.100 69 5.26 m/h 0 %
05:00:00 light rain 31.280 31.280 31.280 66 3.54 m/h 17 %
08:00:00 scattered clouds 32.490 32.490 32.490 62 6.72 m/h 0 %
11:00:00 scattered clouds 35.690 35.690 35.690 52 6.74 m/h 0 %
14:00:00 scattered clouds 38.020 38.020 38.020 42 5.57 m/h 0 %
17:00:00 scattered clouds 37.210 37.210 37.210 46 3.07 m/h 0 %
20:00:00 light rain 32.300 32.300 32.300 71 6.54 m/h 12 %
23:00:00 broken clouds 30.980 30.980 30.980 74 4.93 m/h 0 %
09-Jul-2020 (Thu)
02:00:00 scattered clouds 30.550 30.550 30.550 75 3.31 m/h 0 %
05:00:00 scattered clouds 29.990 29.990 29.990 76 2.16 m/h 0 %
08:00:00 scattered clouds 30.670 30.670 30.670 71 1.09 m/h 0 %
11:00:00 few clouds 34.280 34.280 34.280 55 2.75 m/h 0 %
14:00:00 scattered clouds 35.230 35.230 35.230 55 6.86 m/h 0 %
17:00:00 broken clouds 34.250 34.250 34.250 62 8.26 m/h 0 %
20:00:00 scattered clouds 31.630 31.630 31.630 78 8.11 m/h 0 %
23:00:00 light rain 30.860 30.860 30.860 78 9.25 m/h 30 %
10-Jul-2020 (Fri)
02:00:00 light rain 30.660 30.660 30.660 76 8.87 m/h 30 %
05:00:00 broken clouds 30.100 30.100 30.100 79 9.39 m/h 0 %
08:00:00 broken clouds 31.000 31.000 31.000 75 10.25 m/h 0 %
11:00:00 broken clouds 32.460 32.460 32.460 67 11.23 m/h 0 %
14:00:00 broken clouds 33.440 33.440 33.440 63 12.39 m/h 0 %
17:00:00 scattered clouds 32.260 32.260 32.260 68 12.27 m/h 0 %

Famous Cities (60)